Terminal Aerodrome Forecast
Issued by NWS

Home | Current Version | Previous Version | Text Only | Print | Product List | Glossary Off
Versions: 1 2 3 4 5 6 7 8 9 10 11 12 13 14 15 16 17 18 19 20 21 22 23 24 25

000
FTUS42 KMHX 050539
TAFPGV
TAF
KPGV 050539Z 0506/0606 08005KT 5SM BR OVC005
     FM051500 04006KT 6SM SHRA BKN008
     FM051900 36006KT 6SM SHRA BKN008
     FM060400 00000KT 4SM BR VCSH OVC007
      AMD LTD TO CLD VIS AND WIND=

USA.gov is the U.S. government's official web portal to all federal, state and local government web resources and services.